createdAt,value
2018-11-26T00:02:29.321Z,97111.64
2018-11-26T00:04:58.958Z,97106.98
2018-11-26T00:07:28.580Z,97110.81
2018-11-26T00:10:36.100Z,97108.45
2018-11-26T00:13:06.061Z,97104.91
2018-11-26T00:15:35.674Z,97100.02
2018-11-26T00:18:06.014Z,97097.93
2018-11-26T00:20:35.957Z,97105.18
2018-11-26T00:23:06.379Z,97099.19
2018-11-26T00:25:36.017Z,97097.44
2018-11-26T00:28:05.826Z,97100.99
2018-11-26T00:30:54.423Z,97105.84
2018-11-26T00:33:24.057Z,97087.55
2018-11-26T00:35:53.671Z,97092.56
2018-11-26T00:38:23.319Z,97090.59
2018-11-26T00:41:12.170Z,97092.72
2018-11-26T00:43:41.824Z,97093.09
2018-11-26T00:46:11.782Z,97094.33
2018-11-26T00:48:42.158Z,97083.43
2018-11-26T00:51:11.788Z,97087.78
2018-11-26T00:53:41.411Z,97092.59
2018-11-26T00:56:11.064Z,97092.84
2018-11-26T00:58:40.677Z,97090.00
2018-11-26T01:01:10.309Z,97089.63
2018-11-26T01:03:40.345Z,97090.83
2018-11-26T01:06:10.031Z,97089.67
2018-11-26T01:08:40.111Z,97089.64
2018-11-26T01:11:10.099Z,97087.67
2018-11-26T01:13:58.603Z,97083.85
2018-11-26T01:16:28.226Z,97082.18
2018-11-26T01:18:58.273Z,97090.00
2018-11-26T01:21:46.848Z,97081.42
2018-11-26T01:24:16.889Z,97081.42
2018-11-26T01:26:47.338Z,97084.83
2018-11-26T01:29:36.231Z,97079.13
2018-11-26T01:32:06.527Z,97078.39
2018-11-26T01:34:36.440Z,97078.02
2018-11-26T01:37:06.341Z,97070.51
2018-11-26T01:39:35.956Z,97073.77
2018-11-26T01:42:05.597Z,97063.51
2018-11-26T01:44:35.589Z,97063.53
2018-11-26T01:47:05.202Z,97063.58
2018-11-26T01:49:34.832Z,97061.57
2018-11-26T01:52:04.528Z,97063.69
2018-11-26T01:54:34.106Z,97062.48
2018-11-26T01:57:03.720Z,97062.42
2018-11-26T01:59:33.361Z,97053.05
2018-11-26T02:02:02.969Z,97055.98
2018-11-26T02:04:32.610Z,97058.49
2018-11-26T02:07:02.916Z,97059.41
2018-11-26T02:09:32.829Z,97053.72
2018-11-26T02:12:02.822Z,97052.90
2018-11-26T02:14:32.438Z,97050.19
2018-11-26T02:17:02.892Z,97053.05
2018-11-26T02:19:33.105Z,97049.30
2018-11-26T02:22:03.149Z,97044.84
2018-11-26T02:24:51.654Z,97043.78
2018-11-26T02:27:21.307Z,97041.84
2018-11-26T02:29:51.297Z,97047.20
2018-11-26T02:32:40.167Z,97043.76
2018-11-26T02:35:09.803Z,97038.16
2018-11-26T02:37:40.108Z,97044.66
2018-11-26T02:40:12.691Z,97033.68
2018-11-26T02:42:42.333Z,97029.39
2018-11-26T02:45:12.385Z,97036.32
2018-11-26T02:47:42.007Z,97036.70
2018-11-26T02:50:11.642Z,97033.30
2018-11-26T02:52:41.584Z,97034.89
2018-11-26T02:55:11.321Z,97037.89
2018-11-26T02:57:40.937Z,97034.27
2018-11-26T03:00:14.166Z,97034.58
2018-11-26T03:02:43.800Z,97033.02
2018-11-26T03:05:14.647Z,97030.48
2018-11-26T03:07:44.576Z,97028.66
2018-11-26T03:10:14.173Z,97025.88
2018-11-26T03:12:43.837Z,97026.45
2018-11-26T03:15:14.214Z,97030.91
2018-11-26T03:17:44.225Z,97037.20
2018-11-26T03:20:14.759Z,97036.20
2018-11-26T03:22:44.370Z,97034.83
2018-11-26T03:25:14.025Z,97037.97
2018-11-26T03:27:44.322Z,97030.27
2018-11-26T03:30:32.906Z,97032.77
2018-11-26T03:33:02.515Z,97025.46
2018-11-26T03:35:32.913Z,97033.48
2018-11-26T03:38:02.543Z,97027.17
2018-11-26T03:40:32.208Z,97032.21
2018-11-26T03:43:01.837Z,97033.43
2018-11-26T03:45:31.467Z,97034.88
2018-11-26T03:48:20.813Z,97034.34
2018-11-26T03:51:01.724Z,97034.34
2018-11-26T03:53:31.692Z,97034.91
2018-11-26T03:56:01.332Z,97027.50
2018-11-26T03:58:30.992Z,97035.23
2018-11-26T04:01:00.615Z,97030.13
2018-11-26T04:03:30.986Z,97033.44
2018-11-26T04:06:00.998Z,97026.79
2018-11-26T04:08:30.634Z,97024.19
2018-11-26T04:11:00.238Z,97023.97
2018-11-26T04:13:30.247Z,97024.56
2018-11-26T04:16:00.162Z,97018.04
2018-11-26T04:18:29.803Z,97024.89
2018-11-26T04:21:00.289Z,97029.09
2018-11-26T04:23:29.932Z,97024.70
2018-11-26T04:25:59.547Z,97018.02
2018-11-26T04:31:04.467Z,97018.67
2018-11-26T04:33:34.531Z,97015.96
2018-11-26T04:36:04.170Z,97014.64
2018-11-26T04:38:33.803Z,97006.73
2018-11-26T04:41:03.834Z,97009.67
2018-11-26T04:43:33.843Z,97007.19
2018-11-26T04:46:03.676Z,97010.05
2018-11-26T04:48:33.305Z,97014.20
2018-11-26T04:51:03.315Z,97016.99
2018-11-26T04:53:32.941Z,97017.95
2018-11-26T04:56:21.509Z,97017.62
2018-11-26T04:58:51.119Z,97017.62
2018-11-26T05:01:20.747Z,97021.34
2018-11-26T05:03:50.375Z,97022.98
2018-11-26T05:06:20.042Z,97015.11
2018-11-26T05:08:50.350Z,97022.38
2018-11-26T05:11:19.950Z,97017.20
2018-11-26T05:13:49.588Z,97017.05
2018-11-26T05:16:19.204Z,97016.02
2018-11-26T05:18:49.623Z,97017.78
2018-11-26T05:21:19.245Z,97018.02
2018-11-26T05:23:48.886Z,97014.05
2018-11-26T05:26:18.945Z,97017.97
2018-11-26T05:28:48.584Z,97016.16
2018-11-26T05:31:18.197Z,97013.73
2018-11-26T05:33:47.851Z,97014.68
2018-11-26T05:36:17.479Z,97012.03
2018-11-26T05:38:47.099Z,97013.30
2018-11-26T05:41:16.747Z,97010.52
2018-11-26T05:43:46.369Z,97015.77
2018-11-26T05:46:16.008Z,97010.89
2018-11-26T05:48:45.636Z,97013.69
2018-11-26T05:51:15.277Z,97011.18
2018-11-26T05:53:44.882Z,97011.52
2018-11-26T05:56:14.580Z,97022.27
2018-11-26T05:58:45.327Z,97019.30
2018-11-26T06:01:33.758Z,97014.05
2018-11-26T06:04:04.596Z,97016.04
2018-11-26T06:06:53.168Z,97011.07
2018-11-26T06:09:23.120Z,97002.62
2018-11-26T06:11:53.145Z,97002.84
2018-11-26T06:14:22.759Z,97003.56
2018-11-26T06:16:53.802Z,96986.20
2018-11-26T06:19:22.360Z,97007.55
2018-11-26T06:22:10.574Z,97007.59
2018-11-26T06:24:40.225Z,97010.46
2018-11-26T06:27:10.239Z,97009.75
2018-11-26T06:29:40.249Z,97007.19
2018-11-26T06:32:10.245Z,97019.77
2018-11-26T06:34:42.508Z,97016.69
2018-11-26T06:37:09.488Z,97019.95
2018-11-26T06:39:39.408Z,97032.38
2018-11-26T06:42:09.034Z,97029.14
2018-11-26T06:44:38.646Z,97032.09
2018-11-26T06:47:08.288Z,97037.11
2018-11-26T06:49:37.893Z,97040.77
2018-11-26T06:52:07.904Z,97047.48
2018-11-26T06:54:37.987Z,97043.09
2018-11-26T06:57:08.202Z,97055.03
2018-11-26T06:59:37.805Z,97053.39
2018-11-26T07:02:07.749Z,97058.08
2018-11-26T07:04:37.420Z,97054.44
2018-11-26T07:07:07.783Z,97061.78
2018-11-26T07:09:37.416Z,97063.48
2018-11-26T07:12:07.725Z,97059.69
2018-11-26T07:14:37.376Z,97060.61
2018-11-26T07:17:07.281Z,97066.32
2018-11-26T07:19:40.852Z,97066.29
2018-11-26T07:22:11.195Z,97063.66
2018-11-26T07:24:41.200Z,97067.03
2018-11-26T07:27:10.820Z,97073.06
2018-11-26T07:29:40.449Z,97071.55
2018-11-26T07:32:10.064Z,97074.37
2018-11-26T07:34:39.662Z,97084.16
2018-11-26T07:37:09.562Z,97086.56
2018-11-26T07:39:39.568Z,97086.17
2018-11-26T07:42:09.904Z,97081.86
2018-11-26T07:44:39.825Z,97087.64
2018-11-26T07:47:09.808Z,97084.14
2018-11-26T07:49:39.453Z,97092.64
2018-11-26T07:52:09.474Z,97089.67
2018-11-26T07:54:39.081Z,97091.30
2018-11-26T07:57:09.426Z,97095.72
2018-11-26T07:59:39.015Z,97092.67
2018-11-26T08:02:09.030Z,97098.55
2018-11-26T08:04:38.963Z,97103.19
2018-11-26T08:07:08.597Z,97105.58
2018-11-26T08:09:38.343Z,97106.45
2018-11-26T08:12:08.656Z,97112.29
2018-11-26T08:14:38.284Z,97113.70
2018-11-26T08:17:08.332Z,97119.63
2018-11-26T08:19:38.677Z,97125.24
2018-11-26T08:22:08.300Z,97125.23
2018-11-26T08:24:37.915Z,97130.00
2018-11-26T08:27:26.435Z,97123.42
2018-11-26T08:29:56.101Z,97129.84
2018-11-26T08:32:25.702Z,97134.63
2018-11-26T08:34:55.670Z,97139.50
2018-11-26T08:37:44.188Z,97139.25
2018-11-26T08:40:17.033Z,97145.44
2018-11-26T08:43:05.636Z,97145.80
2018-11-26T08:45:54.367Z,97154.94
2018-11-26T08:48:42.944Z,97154.70
2018-11-26T08:51:12.597Z,97154.80
2018-11-26T08:53:42.212Z,97154.37
2018-11-26T08:56:12.657Z,97163.02
2018-11-26T08:58:42.283Z,97165.11
2018-11-26T09:01:30.541Z,97163.41
2018-11-26T09:09:35.128Z,97175.08
2018-11-26T09:12:05.111Z,97169.37
2018-11-26T09:14:35.728Z,97179.97
2018-11-26T09:17:06.069Z,97185.06
2018-11-26T09:19:36.004Z,97181.37
2018-11-26T09:22:06.397Z,97183.66
2018-11-26T09:24:36.422Z,97181.38
2018-11-26T09:27:09.896Z,97164.36
2018-11-26T09:29:55.574Z,97185.95
2018-11-26T09:32:25.617Z,97163.05
2018-11-26T09:34:55.558Z,97182.59
2018-11-26T09:37:25.154Z,97186.85
2018-11-26T09:39:54.786Z,97183.89
2018-11-26T09:42:24.792Z,97188.16
2018-11-26T09:44:55.185Z,97181.75
2018-11-26T09:47:24.839Z,97177.83
2018-11-26T09:49:54.948Z,97186.94
2018-11-26T09:52:24.958Z,97191.30
2018-11-26T09:54:54.552Z,97185.02
2018-11-26T09:57:24.190Z,97186.13
2018-11-26T09:59:54.210Z,97183.86
2018-11-26T10:02:24.195Z,97185.53
2018-11-26T10:04:53.872Z,97187.41
2018-11-26T10:07:23.488Z,97184.77
2018-11-26T10:09:53.689Z,97177.91
2018-11-26T10:12:23.317Z,97180.44
2018-11-26T10:14:52.917Z,97182.26
2018-11-26T10:17:41.480Z,97189.46
2018-11-26T10:20:12.358Z,97182.53
2018-11-26T10:22:42.414Z,97189.91
2018-11-26T10:25:31.290Z,97183.70
2018-11-26T10:28:01.299Z,97186.97
2018-11-26T10:30:30.936Z,97184.95
2018-11-26T10:33:00.583Z,97184.98
2018-11-26T10:35:30.534Z,97186.95
2018-11-26T10:38:00.580Z,97183.23
2018-11-26T10:40:31.322Z,97184.40
2018-11-26T10:43:00.924Z,97173.91
2018-11-26T10:45:49.664Z,97179.36
2018-11-26T10:48:19.296Z,97172.56
2018-11-26T10:50:48.903Z,97175.56
2018-11-26T10:53:18.527Z,97183.02
2018-11-26T10:55:48.147Z,97185.03
2018-11-26T10:58:18.123Z,97184.61
2018-11-26T11:01:06.386Z,97177.27
2018-11-26T11:03:36.013Z,97184.87
2018-11-26T11:06:06.431Z,97182.84
2018-11-26T11:08:36.348Z,97184.09
2018-11-26T11:11:06.325Z,97183.52
2018-11-26T11:13:35.981Z,97185.50
2018-11-26T11:16:05.574Z,97176.11
2018-11-26T11:18:35.554Z,97178.53
2018-11-26T11:21:05.854Z,97177.94
2018-11-26T11:23:35.635Z,97174.13
2018-11-26T11:26:05.980Z,97172.56
2018-11-26T11:28:35.600Z,97174.35
2018-11-26T11:31:06.094Z,97175.92
2018-11-26T11:33:36.042Z,97178.45
2018-11-26T11:36:05.960Z,97174.97
2018-11-26T11:38:35.755Z,97172.83
2018-11-26T11:41:05.362Z,97175.84
2018-11-26T11:43:35.300Z,97172.89
2018-11-26T11:46:04.914Z,97176.65
2018-11-26T11:48:54.012Z,97175.45
2018-11-26T11:51:23.643Z,97176.06
2018-11-26T11:53:53.281Z,97177.46
2018-11-26T11:56:23.281Z,97178.84
2018-11-26T11:58:53.244Z,97173.67
2018-11-26T12:01:23.568Z,97178.42
2018-11-26T12:03:53.567Z,97174.41
2018-11-26T12:06:23.604Z,97175.34
2018-11-26T12:08:53.557Z,97166.59
2018-11-26T12:11:23.181Z,97165.91
2018-11-26T12:13:53.115Z,97171.89
2018-11-26T12:16:23.161Z,97170.44
2018-11-26T12:18:52.816Z,97174.56
2018-11-26T12:21:22.480Z,97171.86
2018-11-26T12:24:11.037Z,97174.52
2018-11-26T12:26:41.080Z,97168.93
2018-11-26T12:29:10.710Z,97173.53
2018-11-26T12:31:41.310Z,97172.63
2018-11-26T12:34:10.941Z,97178.58
2018-11-26T12:36:40.561Z,97178.25
2018-11-26T12:39:10.998Z,97175.39
2018-11-26T12:41:40.599Z,97173.71
2018-11-26T12:44:10.222Z,97176.96
2018-11-26T12:46:39.849Z,97183.20
2018-11-26T12:49:09.474Z,97179.67
2018-11-26T12:51:39.840Z,97186.42
2018-11-26T12:54:09.464Z,97184.84
2018-11-26T12:56:39.783Z,97194.31
2018-11-26T12:59:09.391Z,97188.11
2018-11-26T13:01:39.044Z,97191.91
2018-11-26T13:04:09.124Z,97194.89
2018-11-26T13:06:38.749Z,97189.07
2018-11-26T13:09:09.399Z,97194.92
2018-11-26T13:11:39.080Z,97197.39
2018-11-26T13:14:08.689Z,97198.90
2018-11-26T13:16:38.334Z,97193.58
2018-11-26T13:19:07.995Z,97201.65
2018-11-26T13:21:38.001Z,97195.70
2018-11-26T13:24:07.749Z,97199.30
2018-11-26T13:26:37.811Z,97209.09
2018-11-26T13:29:07.994Z,97203.91
2018-11-26T13:31:37.912Z,97206.60
2018-11-26T13:34:08.447Z,97211.06
2018-11-26T13:36:38.445Z,97215.92
2018-11-26T13:39:10.010Z,97207.84
2018-11-26T13:41:39.933Z,97203.69
2018-11-26T13:44:09.870Z,97214.53
2018-11-26T13:46:39.516Z,97223.73
2018-11-26T13:49:09.995Z,97226.54
2018-11-26T13:51:39.612Z,97229.67
2018-11-26T13:54:28.166Z,97224.98
2018-11-26T13:56:58.121Z,97228.37
2018-11-26T13:59:27.722Z,97229.05
2018-11-26T14:01:57.287Z,97228.55
2018-11-26T14:04:27.004Z,97232.20
2018-11-26T14:06:56.640Z,97234.22
2018-11-26T14:09:26.236Z,97232.72
2018-11-26T14:11:55.838Z,97237.69
2018-11-26T14:14:44.050Z,97237.38
2018-11-26T14:17:13.653Z,97230.51
2018-11-26T14:19:43.228Z,97246.64
2018-11-26T14:22:12.934Z,97246.12
2018-11-26T14:24:42.916Z,97250.41
2018-11-26T14:27:13.274Z,97247.92
2018-11-26T14:29:42.874Z,97254.02
2018-11-26T14:32:12.816Z,97246.72
2018-11-26T14:34:42.451Z,97248.11
2018-11-26T14:37:12.083Z,97252.45
2018-11-26T14:39:41.728Z,97259.83
2018-11-26T14:42:31.333Z,97249.44
2018-11-26T14:45:01.388Z,97257.57
2018-11-26T14:47:31.000Z,97258.72
2018-11-26T14:50:00.651Z,97268.10
2018-11-26T14:52:30.582Z,97269.38
2018-11-26T14:55:00.590Z,97266.34
2018-11-26T14:57:30.767Z,97268.66
2018-11-26T14:59:59.880Z,97263.57
2018-11-26T15:02:29.488Z,97268.75
2018-11-26T15:04:59.546Z,97270.52
2018-11-26T15:07:48.147Z,97269.22
2018-11-26T15:10:36.732Z,97269.22
2018-11-26T15:13:07.693Z,97282.88
2018-11-26T15:15:37.311Z,97282.90
2018-11-26T15:18:07.285Z,97290.14
2018-11-26T15:20:44.196Z,97289.09
2018-11-26T15:23:13.843Z,97288.44
2018-11-26T15:25:43.456Z,97284.53
2018-11-26T15:28:14.531Z,97292.09
2018-11-26T15:30:44.506Z,97294.23
2018-11-26T15:33:33.098Z,97293.41
2018-11-26T15:36:03.123Z,97295.49
2018-11-26T15:38:32.753Z,97293.95
2018-11-26T15:41:02.709Z,97295.69
2018-11-26T15:43:32.341Z,97292.45
2018-11-26T15:46:02.398Z,97296.66
2018-11-26T15:48:32.768Z,97296.28
2018-11-26T15:51:02.408Z,97298.89
2018-11-26T15:53:32.033Z,97304.65
2018-11-26T15:56:02.075Z,97299.16
2018-11-26T15:58:31.707Z,97304.45
2018-11-26T16:01:01.345Z,97306.69
2018-11-26T16:03:31.285Z,97309.00
2018-11-26T16:06:00.964Z,97309.57
2018-11-26T16:08:30.963Z,97309.84
2018-11-26T16:11:00.616Z,97316.83
2018-11-26T16:13:30.595Z,97313.28
2018-11-26T16:16:00.625Z,97318.60
2018-11-26T16:18:30.346Z,97322.50
2018-11-26T16:20:59.978Z,97318.49
2018-11-26T16:23:29.616Z,97319.63
2018-11-26T16:25:59.241Z,97321.48
2018-11-26T16:28:28.871Z,97321.39
2018-11-26T16:30:58.816Z,97327.61
2018-11-26T16:33:28.459Z,97322.88
2018-11-26T16:35:58.492Z,97324.92
2018-11-26T16:38:28.604Z,97332.34
2018-11-26T16:40:58.216Z,97330.45
2018-11-26T16:43:27.851Z,97332.34
2018-11-26T16:45:57.512Z,97333.19
2018-11-26T16:48:27.156Z,97337.64
2018-11-26T16:50:56.778Z,97336.89
2018-11-26T16:53:26.410Z,97339.61
2018-11-26T16:55:56.055Z,97344.98
2018-11-26T16:58:44.973Z,97342.19
2018-11-26T17:01:14.609Z,97342.19
2018-11-26T17:03:44.620Z,97348.28
2018-11-26T17:06:14.267Z,97358.98
2018-11-26T17:08:43.893Z,97357.17
2018-11-26T17:11:33.128Z,97361.39
2018-11-26T17:14:02.752Z,97355.86
2018-11-26T17:16:32.755Z,97359.45
2018-11-26T17:19:02.384Z,97360.41
2018-11-26T17:21:32.760Z,97361.56
2018-11-26T17:24:02.799Z,97361.64
2018-11-26T17:26:32.421Z,97365.54
2018-11-26T17:29:02.058Z,97364.37
2018-11-26T17:31:31.696Z,97373.98
2018-11-26T17:34:01.328Z,97381.58
2018-11-26T17:36:31.996Z,97375.09
2018-11-26T17:39:01.646Z,97351.91
2018-11-26T17:41:32.489Z,97381.95
2018-11-26T17:44:02.877Z,97379.37
2018-11-26T17:46:32.498Z,97383.39
2018-11-26T17:49:02.505Z,97382.69
2018-11-26T17:51:32.121Z,97387.68
2018-11-26T17:54:02.541Z,97400.60
2018-11-26T17:56:32.152Z,97397.64
2018-11-26T17:59:02.584Z,97395.97
2018-11-26T18:01:43.872Z,97401.03
2018-11-26T18:04:13.543Z,97399.45
2018-11-26T18:06:47.481Z,97406.87
2018-11-26T18:09:13.470Z,97407.34
2018-11-26T18:11:43.095Z,97406.66
2018-11-26T18:14:12.750Z,97406.27
2018-11-26T18:16:42.393Z,97412.04
2018-11-26T18:19:12.373Z,97418.39
2018-11-26T18:21:42.003Z,97419.59
2018-11-26T18:24:12.040Z,97420.20
2018-11-26T18:26:41.702Z,97425.28
2018-11-26T18:29:11.465Z,97421.91
2018-11-26T18:31:43.288Z,97428.24
2018-11-26T18:34:13.309Z,97426.38
2018-11-26T18:36:43.450Z,97430.05
2018-11-26T18:39:13.115Z,97425.78
2018-11-26T18:41:42.757Z,97428.47
2018-11-26T18:44:12.375Z,97419.61
2018-11-26T18:46:42.013Z,97427.18
2018-11-26T18:49:11.653Z,97427.08
2018-11-26T18:51:41.286Z,97432.19
2018-11-26T18:54:29.803Z,97433.16
2018-11-26T18:56:59.826Z,97432.43
2018-11-26T18:59:30.322Z,97442.48
2018-11-26T19:02:00.330Z,97444.28
2018-11-26T19:04:29.966Z,97443.60
2018-11-26T19:07:00.274Z,97446.05
2018-11-26T19:09:29.932Z,97447.45
2018-11-26T19:12:04.004Z,97453.94
2018-11-26T19:14:29.257Z,97449.03
2018-11-26T19:16:59.418Z,97457.59
2018-11-26T19:19:29.437Z,97457.45
2018-11-26T19:21:59.462Z,97455.53
2018-11-26T19:24:30.150Z,97461.89
2018-11-26T19:27:00.449Z,97469.55
2018-11-26T19:29:30.054Z,97466.92
2018-11-26T19:32:00.471Z,97474.38
2018-11-26T19:34:30.477Z,97463.69
2018-11-26T19:37:00.468Z,97473.32
2018-11-26T19:39:30.091Z,97478.41
2018-11-26T19:41:59.743Z,97477.81
2018-11-26T19:44:29.439Z,97477.89
2018-11-26T19:46:59.065Z,97483.79
2018-11-26T19:49:28.726Z,97482.99
2018-11-26T19:51:58.682Z,97494.65
2018-11-26T19:54:28.686Z,97496.21
2018-11-26T19:56:58.337Z,97496.28
2018-11-26T19:59:27.959Z,97501.09
2018-11-26T20:01:57.990Z,97505.78
2018-11-26T20:04:51.731Z,97505.86
2018-11-26T20:07:21.729Z,97505.78
2018-11-26T20:09:51.773Z,97515.12
2018-11-26T20:12:21.437Z,97519.38
2018-11-26T20:14:51.804Z,97523.88
2018-11-26T20:17:21.819Z,97524.06
2018-11-26T20:20:10.696Z,97529.09
2018-11-26T20:22:40.607Z,97532.72
2018-11-26T20:25:30.131Z,97525.70
2018-11-26T20:28:19.075Z,97536.42
2018-11-26T20:30:48.712Z,97538.09
2018-11-26T20:33:18.660Z,97543.91
2018-11-26T20:35:48.692Z,97544.95
2018-11-26T20:38:18.432Z,97546.44
2018-11-26T20:40:48.060Z,97548.75
2018-11-26T20:43:18.002Z,97551.96
2018-11-26T20:45:51.840Z,97555.62
2018-11-26T20:48:21.487Z,97556.14
2018-11-26T20:51:11.033Z,97559.83
2018-11-26T20:53:41.024Z,97561.79
2018-11-26T20:56:30.710Z,97561.84
2018-11-26T20:59:00.335Z,97567.03
2018-11-26T21:01:30.009Z,97569.85
2018-11-26T21:03:59.660Z,97564.33
2018-11-26T21:06:29.346Z,97563.74
2018-11-26T21:08:59.414Z,97566.93
2018-11-26T21:11:29.095Z,97575.09
2018-11-26T21:13:59.048Z,97574.27
2018-11-26T21:16:28.736Z,97578.03
2018-11-26T21:18:58.391Z,97574.44
2018-11-26T21:21:47.109Z,97575.96
2018-11-26T21:24:17.120Z,97576.84
2018-11-26T21:26:47.160Z,97579.34
2018-11-26T21:29:16.818Z,97580.28
2018-11-26T21:31:46.939Z,97575.38
2018-11-26T21:34:35.158Z,97576.02
2018-11-26T21:37:05.171Z,97578.95
2018-11-26T21:39:34.834Z,97585.67
2018-11-26T21:42:04.507Z,97588.50
2018-11-26T21:44:34.536Z,97590.48
2018-11-26T21:47:04.358Z,97590.63
2018-11-26T21:49:34.340Z,97592.08
2018-11-26T21:52:04.024Z,97598.00
2018-11-26T21:54:33.663Z,97597.64
2018-11-26T21:57:03.340Z,97591.48
2018-11-26T21:59:33.383Z,97595.38
2018-11-26T22:02:03.413Z,97594.83
2018-11-26T22:04:33.629Z,97591.36
2018-11-26T22:07:03.675Z,97592.35
2018-11-26T22:09:34.294Z,97594.70
2018-11-26T22:12:04.328Z,97602.74
2018-11-26T22:14:34.045Z,97600.89
2018-11-26T22:17:03.980Z,97594.18
2018-11-26T22:19:33.666Z,97603.72
2018-11-26T22:22:03.361Z,97605.78
2018-11-26T22:24:33.477Z,97610.73
2018-11-26T22:27:22.423Z,97620.38
2018-11-26T22:29:52.479Z,97615.77
2018-11-26T22:32:22.137Z,97615.25
2018-11-26T22:34:52.221Z,97623.77
2018-11-26T22:37:21.875Z,97623.56
2018-11-26T22:39:51.856Z,97628.66
2018-11-26T22:42:21.500Z,97631.44
2018-11-26T22:44:51.560Z,97635.30
2018-11-26T22:47:21.598Z,97637.18
2018-11-26T22:49:51.227Z,97638.77
2018-11-26T22:52:20.852Z,97645.99
2018-11-26T22:54:50.495Z,97645.31
2018-11-26T22:57:20.137Z,97642.27
2018-11-26T22:59:50.062Z,97649.59
2018-11-26T23:02:20.037Z,97645.41
2018-11-26T23:04:49.646Z,97650.58
2018-11-26T23:07:19.268Z,97662.38
2018-11-26T23:09:48.898Z,97654.45
2018-11-26T23:12:18.520Z,97655.89
2018-11-26T23:15:08.985Z,97652.27
2018-11-26T23:17:38.999Z,97655.78
2018-11-26T23:20:10.799Z,97653.77
2018-11-26T23:22:40.597Z,97657.31
2018-11-26T23:25:29.886Z,97661.09
2018-11-26T23:27:59.534Z,97657.53
2018-11-26T23:30:30.324Z,97658.97
2018-11-26T23:33:04.465Z,97661.25
2018-11-26T23:35:34.091Z,97665.31
2018-11-26T23:38:03.722Z,97666.61
2018-11-26T23:40:34.179Z,97650.91
2018-11-26T23:43:03.414Z,97662.06
2018-11-26T23:45:33.362Z,97662.52
2018-11-26T23:48:03.754Z,97667.66
2018-11-26T23:50:33.378Z,97665.91
2018-11-26T23:53:03.449Z,97668.03
2018-11-26T23:55:33.452Z,97670.31
2018-11-26T23:58:03.119Z,97670.63
